sensor_id;sensor_type;location;lat;lon;timestamp;P1;durP1;ratioP1;P2;durP2;ratioP2
28920;SDS011;16035;53.594;9.952;2023-06-22T00:00:08;3.90;;;2.20;;
28920;SDS011;16035;53.594;9.952;2023-06-22T00:02:11;5.22;;;2.00;;
28920;SDS011;16035;53.594;9.952;2023-06-22T00:04:12;3.03;;;1.93;;
28920;SDS011;16035;53.594;9.952;2023-06-22T00:06:12;3.40;;;2.03;;
28920;SDS011;16035;53.594;9.952;2023-06-22T00:08:13;3.03;;;2.10;;
28920;SDS011;16035;53.594;9.952;2023-06-22T00:10:13;2.13;;;1.92;;
28920;SDS011;16035;53.594;9.952;2023-06-22T00:12:14;3.00;;;2.27;;
28920;SDS011;16035;53.594;9.952;2023-06-22T00:14:14;3.63;;;2.37;;
28920;SDS011;16035;53.594;9.952;2023-06-22T00:16:14;4.07;;;2.20;;
28920;SDS011;16035;53.594;9.952;2023-06-22T00:18:15;2.47;;;2.00;;
28920;SDS011;16035;53.594;9.952;2023-06-22T00:20:15;2.77;;;2.00;;
28920;SDS011;16035;53.594;9.952;2023-06-22T00:22:16;2.88;;;2.03;;
28920;SDS011;16035;53.594;9.952;2023-06-22T00:24:17;5.00;;;2.13;;
28920;SDS011;16035;53.594;9.952;2023-06-22T00:26:17;2.33;;;1.93;;
28920;SDS011;16035;53.594;9.952;2023-06-22T00:28:17;3.37;;;2.50;;
28920;SDS011;16035;53.594;9.952;2023-06-22T00:30:18;2.90;;;2.20;;
28920;SDS011;16035;53.594;9.952;2023-06-22T00:32:19;5.10;;;2.10;;
28920;SDS011;16035;53.594;9.952;2023-06-22T00:34:19;3.67;;;1.97;;
28920;SDS011;16035;53.594;9.952;2023-06-22T00:36:19;2.77;;;1.90;;
28920;SDS011;16035;53.594;9.952;2023-06-22T00:38:20;3.27;;;2.07;;
28920;SDS011;16035;53.594;9.952;2023-06-22T00:40:20;2.60;;;1.50;;
28920;SDS011;16035;53.594;9.952;2023-06-22T00:42:21;2.70;;;1.67;;
28920;SDS011;16035;53.594;9.952;2023-06-22T00:44:22;2.63;;;2.03;;
28920;SDS011;16035;53.594;9.952;2023-06-22T00:46:23;3.37;;;2.40;;
28920;SDS011;16035;53.594;9.952;2023-06-22T00:48:24;2.92;;;2.15;;
28920;SDS011;16035;53.594;9.952;2023-06-22T00:50:26;5.00;;;1.90;;
28920;SDS011;16035;53.594;9.952;2023-06-22T00:52:33;5.00;;;2.40;;
28920;SDS011;16035;53.594;9.952;2023-06-22T00:54:35;3.95;;;2.33;;
28920;SDS011;16035;53.594;9.952;2023-06-22T00:58:38;4.27;;;2.40;;
28920;SDS011;16035;53.594;9.952;2023-06-22T01:00:41;4.35;;;2.53;;
28920;SDS011;16035;53.594;9.952;2023-06-22T01:02:42;5.25;;;2.50;;
28920;SDS011;16035;53.594;9.952;2023-06-22T01:04:45;4.13;;;2.40;;
28920;SDS011;16035;53.594;9.952;2023-06-22T01:06:54;2.63;;;2.20;;
28920;SDS011;16035;53.594;9.952;2023-06-22T01:09:11;2.33;;;1.85;;
28920;SDS011;16035;53.594;9.952;2023-06-22T01:11:16;2.75;;;2.10;;
28920;SDS011;16035;53.594;9.952;2023-06-22T01:15:39;4.65;;;2.72;;
28920;SDS011;16035;53.594;9.952;2023-06-22T01:17:46;4.20;;;2.22;;
28920;SDS011;16035;53.594;9.952;2023-06-22T01:19:49;4.22;;;2.33;;
28920;SDS011;16035;53.594;9.952;2023-06-22T01:21:57;2.90;;;2.22;;
28920;SDS011;16035;53.594;9.952;2023-06-22T01:24:18;4.78;;;2.17;;
28920;SDS011;16035;53.594;9.952;2023-06-22T01:26:42;3.42;;;2.08;;
28920;SDS011;16035;53.594;9.952;2023-06-22T01:28:50;3.33;;;2.38;;
28920;SDS011;16035;53.594;9.952;2023-06-22T01:30:53;3.53;;;2.47;;
28920;SDS011;16035;53.594;9.952;2023-06-22T01:33:03;3.33;;;2.20;;
28920;SDS011;16035;53.594;9.952;2023-06-22T01:35:11;3.46;;;2.42;;
28920;SDS011;16035;53.594;9.952;2023-06-22T01:37:13;4.35;;;2.50;;
28920;SDS011;16035;53.594;9.952;2023-06-22T01:39:14;3.47;;;2.47;;
28920;SDS011;16035;53.594;9.952;2023-06-22T01:41:16;6.63;;;2.90;;
28920;SDS011;16035;53.594;9.952;2023-06-22T01:43:17;5.65;;;2.85;;
28920;SDS011;16035;53.594;9.952;2023-06-22T01:45:19;3.78;;;2.50;;
28920;SDS011;16035;53.594;9.952;2023-06-22T01:47:22;4.10;;;2.50;;
28920;SDS011;16035;53.594;9.952;2023-06-22T01:49:24;3.58;;;2.63;;
28920;SDS011;16035;53.594;9.952;2023-06-22T01:51:24;4.33;;;2.67;;
28920;SDS011;16035;53.594;9.952;2023-06-22T01:53:25;4.77;;;2.63;;
28920;SDS011;16035;53.594;9.952;2023-06-22T01:55:25;5.60;;;2.83;;
28920;SDS011;16035;53.594;9.952;2023-06-22T01:57:26;5.73;;;2.80;;
28920;SDS011;16035;53.594;9.952;2023-06-22T01:59:29;4.35;;;2.85;;
28920;SDS011;16035;53.594;9.952;2023-06-22T02:01:31;4.55;;;3.28;;
28920;SDS011;16035;53.594;9.952;2023-06-22T02:03:41;4.45;;;2.55;;
28920;SDS011;16035;53.594;9.952;2023-06-22T02:05:50;6.35;;;2.95;;
28920;SDS011;16035;53.594;9.952;2023-06-22T02:08:11;4.97;;;3.10;;
28920;SDS011;16035;53.594;9.952;2023-06-22T02:10:18;5.20;;;3.38;;
28920;SDS011;16035;53.594;9.952;2023-06-22T02:12:21;4.40;;;2.75;;
28920;SDS011;16035;53.594;9.952;2023-06-22T02:14:24;4.88;;;2.83;;
28920;SDS011;16035;53.594;9.952;2023-06-22T02:16:25;4.43;;;2.60;;
28920;SDS011;16035;53.594;9.952;2023-06-22T02:18:29;5.35;;;2.92;;
28920;SDS011;16035;53.594;9.952;2023-06-22T02:20:30;4.13;;;3.07;;
28920;SDS011;16035;53.594;9.952;2023-06-22T02:22:30;3.23;;;2.70;;
28920;SDS011;16035;53.594;9.952;2023-06-22T02:24:30;4.67;;;3.57;;
28920;SDS011;16035;53.594;9.952;2023-06-22T02:26:32;5.68;;;3.20;;
28920;SDS011;16035;53.594;9.952;2023-06-22T02:28:32;4.90;;;2.92;;
28920;SDS011;16035;53.594;9.952;2023-06-22T02:30:33;4.60;;;2.80;;
28920;SDS011;16035;53.594;9.952;2023-06-22T02:32:33;5.67;;;2.83;;
28920;SDS011;16035;53.594;9.952;2023-06-22T02:34:34;9.45;;;3.03;;
28920;SDS011;16035;53.594;9.952;2023-06-22T02:36:36;4.97;;;2.97;;
28920;SDS011;16035;53.594;9.952;2023-06-22T02:38:37;5.47;;;3.73;;
28920;SDS011;16035;53.594;9.952;2023-06-22T02:40:37;6.90;;;3.40;;
28920;SDS011;16035;53.594;9.952;2023-06-22T02:42:39;7.17;;;3.60;;
28920;SDS011;16035;53.594;9.952;2023-06-22T02:44:40;5.03;;;3.40;;
28920;SDS011;16035;53.594;9.952;2023-06-22T02:46:40;5.77;;;2.77;;
28920;SDS011;16035;53.594;9.952;2023-06-22T02:48:40;9.33;;;3.67;;
28920;SDS011;16035;53.594;9.952;2023-06-22T02:50:41;4.17;;;3.17;;
28920;SDS011;16035;53.594;9.952;2023-06-22T02:52:41;4.90;;;3.30;;
28920;SDS011;16035;53.594;9.952;2023-06-22T02:54:41;6.77;;;2.87;;
28920;SDS011;16035;53.594;9.952;2023-06-22T02:56:42;4.80;;;3.13;;
28920;SDS011;16035;53.594;9.952;2023-06-22T02:58:43;3.95;;;3.25;;
28920;SDS011;16035;53.594;9.952;2023-06-22T03:00:44;4.50;;;3.10;;
28920;SDS011;16035;53.594;9.952;2023-06-22T03:02:44;6.67;;;3.00;;
28920;SDS011;16035;53.594;9.952;2023-06-22T03:04:45;5.57;;;3.60;;
28920;SDS011;16035;53.594;9.952;2023-06-22T03:06:48;4.82;;;3.25;;
28920;SDS011;16035;53.594;9.952;2023-06-22T03:08:50;6.25;;;3.60;;
28920;SDS011;16035;53.594;9.952;2023-06-22T03:10:51;6.17;;;3.20;;
28920;SDS011;16035;53.594;9.952;2023-06-22T03:12:51;7.07;;;3.73;;
28920;SDS011;16035;53.594;9.952;2023-06-22T03:14:51;4.37;;;3.23;;
28920;SDS011;16035;53.594;9.952;2023-06-22T03:16:52;3.83;;;3.03;;
28920;SDS011;16035;53.594;9.952;2023-06-22T03:18:52;4.10;;;2.93;;
28920;SDS011;16035;53.594;9.952;2023-06-22T03:20:53;5.95;;;3.88;;
28920;SDS011;16035;53.594;9.952;2023-06-22T03:22:53;3.70;;;2.60;;
28920;SDS011;16035;53.594;9.952;2023-06-22T03:24:54;4.70;;;3.23;;
28920;SDS011;16035;53.594;9.952;2023-06-22T03:26:54;6.07;;;3.50;;
28920;SDS011;16035;53.594;9.952;2023-06-22T03:28:54;5.43;;;3.83;;
28920;SDS011;16035;53.594;9.952;2023-06-22T03:30:57;6.97;;;3.43;;
28920;SDS011;16035;53.594;9.952;2023-06-22T03:32:57;4.70;;;3.40;;
28920;SDS011;16035;53.594;9.952;2023-06-22T03:34:58;5.50;;;3.60;;
28920;SDS011;16035;53.594;9.952;2023-06-22T03:36:58;6.80;;;3.57;;
28920;SDS011;16035;53.594;9.952;2023-06-22T03:38:59;5.87;;;3.80;;
28920;SDS011;16035;53.594;9.952;2023-06-22T03:40:59;5.33;;;3.33;;
28920;SDS011;16035;53.594;9.952;2023-06-22T03:43:00;5.93;;;3.47;;
28920;SDS011;16035;53.594;9.952;2023-06-22T03:45:00;5.73;;;3.47;;
28920;SDS011;16035;53.594;9.952;2023-06-22T03:47:01;6.05;;;3.70;;
28920;SDS011;16035;53.594;9.952;2023-06-22T03:49:02;5.43;;;3.35;;
28920;SDS011;16035;53.594;9.952;2023-06-22T03:51:03;4.30;;;3.15;;
28920;SDS011;16035;53.594;9.952;2023-06-22T03:53:03;5.90;;;3.93;;
28920;SDS011;16035;53.594;9.952;2023-06-22T03:55:04;5.10;;;3.27;;
28920;SDS011;16035;53.594;9.952;2023-06-22T03:57:04;5.65;;;3.95;;
28920;SDS011;16035;53.594;9.952;2023-06-22T03:59:05;6.05;;;4.10;;
28920;SDS011;16035;53.594;9.952;2023-06-22T04:01:06;6.20;;;3.90;;
28920;SDS011;16035;53.594;9.952;2023-06-22T04:03:06;4.77;;;3.60;;
28920;SDS011;16035;53.594;9.952;2023-06-22T04:05:08;7.28;;;4.30;;
28920;SDS011;16035;53.594;9.952;2023-06-22T04:07:09;5.47;;;3.92;;
28920;SDS011;16035;53.594;9.952;2023-06-22T04:09:09;4.93;;;3.90;;
28920;SDS011;16035;53.594;9.952;2023-06-22T04:11:09;6.57;;;4.10;;
28920;SDS011;16035;53.594;9.952;2023-06-22T04:13:10;6.53;;;4.37;;
28920;SDS011;16035;53.594;9.952;2023-06-22T04:15:10;6.33;;;3.93;;
28920;SDS011;16035;53.594;9.952;2023-06-22T04:17:12;7.05;;;4.40;;
28920;SDS011;16035;53.594;9.952;2023-06-22T04:19:14;4.70;;;3.95;;
28920;SDS011;16035;53.594;9.952;2023-06-22T04:21:17;5.68;;;3.90;;
28920;SDS011;16035;53.594;9.952;2023-06-22T04:23:19;9.52;;;3.90;;
28920;SDS011;16035;53.594;9.952;2023-06-22T04:25:20;4.53;;;3.77;;
28920;SDS011;16035;53.594;9.952;2023-06-22T04:27:20;6.82;;;3.83;;
28920;SDS011;16035;53.594;9.952;2023-06-22T04:29:23;6.53;;;4.28;;
28920;SDS011;16035;53.594;9.952;2023-06-22T04:31:28;6.13;;;4.38;;
28920;SDS011;16035;53.594;9.952;2023-06-22T04:33:31;6.07;;;3.78;;
28920;SDS011;16035;53.594;9.952;2023-06-22T04:35:32;9.57;;;4.00;;
28920;SDS011;16035;53.594;9.952;2023-06-22T04:37:32;8.30;;;4.13;;
28920;SDS011;16035;53.594;9.952;2023-06-22T04:39:33;6.80;;;3.58;;
28920;SDS011;16035;53.594;9.952;2023-06-22T04:41:34;5.63;;;3.20;;
28920;SDS011;16035;53.594;9.952;2023-06-22T04:43:41;5.55;;;3.90;;
28920;SDS011;16035;53.594;9.952;2023-06-22T04:45:41;5.03;;;3.77;;
28920;SDS011;16035;53.594;9.952;2023-06-22T04:47:42;6.13;;;4.07;;
28920;SDS011;16035;53.594;9.952;2023-06-22T04:49:42;7.17;;;4.50;;
28920;SDS011;16035;53.594;9.952;2023-06-22T04:51:43;7.35;;;4.63;;
28920;SDS011;16035;53.594;9.952;2023-06-22T04:53:43;6.53;;;4.60;;
28920;SDS011;16035;53.594;9.952;2023-06-22T04:55:43;7.50;;;3.63;;
28920;SDS011;16035;53.594;9.952;2023-06-22T04:57:45;6.03;;;3.60;;
28920;SDS011;16035;53.594;9.952;2023-06-22T04:59:49;6.93;;;3.60;;
28920;SDS011;16035;53.594;9.952;2023-06-22T05:01:49;5.47;;;3.73;;
28920;SDS011;16035;53.594;9.952;2023-06-22T05:03:51;5.13;;;3.53;;
28920;SDS011;16035;53.594;9.952;2023-06-22T05:06:00;4.88;;;3.03;;
28920;SDS011;16035;53.594;9.952;2023-06-22T05:08:01;5.03;;;3.67;;
28920;SDS011;16035;53.594;9.952;2023-06-22T05:10:04;7.07;;;4.73;;
28920;SDS011;16035;53.594;9.952;2023-06-22T05:12:05;7.15;;;3.40;;
28920;SDS011;16035;53.594;9.952;2023-06-22T05:14:06;4.93;;;3.28;;
28920;SDS011;16035;53.594;9.952;2023-06-22T05:16:07;7.05;;;4.22;;
28920;SDS011;16035;53.594;9.952;2023-06-22T05:18:07;6.30;;;4.10;;
28920;SDS011;16035;53.594;9.952;2023-06-22T05:20:09;9.00;;;4.27;;
28920;SDS011;16035;53.594;9.952;2023-06-22T05:22:10;5.72;;;3.15;;
28920;SDS011;16035;53.594;9.952;2023-06-22T05:24:12;4.72;;;3.67;;
28920;SDS011;16035;53.594;9.952;2023-06-22T05:26:12;6.03;;;3.30;;
28920;SDS011;16035;53.594;9.952;2023-06-22T05:28:13;5.70;;;2.93;;
28920;SDS011;16035;53.594;9.952;2023-06-22T05:30:13;3.75;;;2.88;;
28920;SDS011;16035;53.594;9.952;2023-06-22T05:32:16;6.85;;;2.97;;
28920;SDS011;16035;53.594;9.952;2023-06-22T05:34:16;2.63;;;2.03;;
28920;SDS011;16035;53.594;9.952;2023-06-22T05:36:17;4.23;;;3.00;;
28920;SDS011;16035;53.594;9.952;2023-06-22T05:38:19;7.85;;;2.85;;
28920;SDS011;16035;53.594;9.952;2023-06-22T05:40:20;4.80;;;3.23;;
28920;SDS011;16035;53.594;9.952;2023-06-22T05:42:20;3.67;;;2.37;;
28920;SDS011;16035;53.594;9.952;2023-06-22T05:44:21;4.85;;;2.35;;
28920;SDS011;16035;53.594;9.952;2023-06-22T05:46:22;3.40;;;2.33;;
28920;SDS011;16035;53.594;9.952;2023-06-22T05:48:23;3.85;;;2.42;;
28920;SDS011;16035;53.594;9.952;2023-06-22T05:50:23;4.50;;;2.75;;
28920;SDS011;16035;53.594;9.952;2023-06-22T05:52:24;2.40;;;2.00;;
28920;SDS011;16035;53.594;9.952;2023-06-22T05:54:24;4.43;;;2.30;;
28920;SDS011;16035;53.594;9.952;2023-06-22T05:56:24;5.77;;;2.30;;
28920;SDS011;16035;53.594;9.952;2023-06-22T05:58:25;3.60;;;2.40;;
28920;SDS011;16035;53.594;9.952;2023-06-22T06:00:25;3.70;;;3.03;;
28920;SDS011;16035;53.594;9.952;2023-06-22T06:02:25;3.17;;;1.43;;
28920;SDS011;16035;53.594;9.952;2023-06-22T06:04:26;5.03;;;2.23;;
28920;SDS011;16035;53.594;9.952;2023-06-22T06:06:26;3.97;;;2.77;;
28920;SDS011;16035;53.594;9.952;2023-06-22T06:08:28;3.22;;;2.20;;
28920;SDS011;16035;53.594;9.952;2023-06-22T06:10:28;4.93;;;2.73;;
28920;SDS011;16035;53.594;9.952;2023-06-22T06:12:32;2.78;;;2.08;;
28920;SDS011;16035;53.594;9.952;2023-06-22T06:14:32;3.33;;;1.98;;
28920;SDS011;16035;53.594;9.952;2023-06-22T06:16:33;3.43;;;2.27;;
28920;SDS011;16035;53.594;9.952;2023-06-22T06:18:33;2.77;;;2.30;;
28920;SDS011;16035;53.594;9.952;2023-06-22T06:20:34;2.40;;;2.00;;
28920;SDS011;16035;53.594;9.952;2023-06-22T06:22:35;3.03;;;2.40;;
28920;SDS011;16035;53.594;9.952;2023-06-22T06:24:35;4.13;;;2.27;;
28920;SDS011;16035;53.594;9.952;2023-06-22T06:26:36;3.47;;;2.13;;
28920;SDS011;16035;53.594;9.952;2023-06-22T06:28:36;3.17;;;2.10;;
28920;SDS011;16035;53.594;9.952;2023-06-22T06:30:36;2.47;;;2.23;;
28920;SDS011;16035;53.594;9.952;2023-06-22T06:32:37;6.97;;;2.30;;
28920;SDS011;16035;53.594;9.952;2023-06-22T06:34:38;4.63;;;2.53;;
28920;SDS011;16035;53.594;9.952;2023-06-22T06:36:38;2.30;;;2.00;;
28920;SDS011;16035;53.594;9.952;2023-06-22T06:38:39;3.73;;;1.83;;
28920;SDS011;16035;53.594;9.952;2023-06-22T06:40:39;2.40;;;2.03;;
28920;SDS011;16035;53.594;9.952;2023-06-22T06:42:40;3.57;;;1.70;;
28920;SDS011;16035;53.594;9.952;2023-06-22T06:44:41;5.25;;;1.67;;
28920;SDS011;16035;53.594;9.952;2023-06-22T06:46:42;3.53;;;1.83;;
28920;SDS011;16035;53.594;9.952;2023-06-22T06:48:42;4.10;;;2.20;;
28920;SDS011;16035;53.594;9.952;2023-06-22T06:50:43;2.47;;;1.60;;
28920;SDS011;16035;53.594;9.952;2023-06-22T06:52:43;6.18;;;2.00;;
28920;SDS011;16035;53.594;9.952;2023-06-22T06:54:44;2.95;;;2.17;;
28920;SDS011;16035;53.594;9.952;2023-06-22T06:56:44;4.33;;;2.60;;
28920;SDS011;16035;53.594;9.952;2023-06-22T06:58:49;2.83;;;2.30;;
28920;SDS011;16035;53.594;9.952;2023-06-22T07:00:50;3.35;;;2.17;;
28920;SDS011;16035;53.594;9.952;2023-06-22T07:02:51;3.77;;;2.27;;
28920;SDS011;16035;53.594;9.952;2023-06-22T07:04:51;3.70;;;2.00;;
28920;SDS011;16035;53.594;9.952;2023-06-22T07:06:52;4.47;;;2.23;;
28920;SDS011;16035;53.594;9.952;2023-06-22T07:08:52;4.93;;;2.37;;
28920;SDS011;16035;53.594;9.952;2023-06-22T07:10:52;3.13;;;2.43;;
28920;SDS011;16035;53.594;9.952;2023-06-22T07:12:53;2.63;;;2.20;;
28920;SDS011;16035;53.594;9.952;2023-06-22T07:14:53;4.53;;;2.93;;
28920;SDS011;16035;53.594;9.952;2023-06-22T07:16:53;3.27;;;2.40;;
28920;SDS011;16035;53.594;9.952;2023-06-22T07:18:54;4.83;;;2.30;;
28920;SDS011;16035;53.594;9.952;2023-06-22T07:20:54;3.80;;;2.30;;
28920;SDS011;16035;53.594;9.952;2023-06-22T07:22:54;3.53;;;1.90;;
28920;SDS011;16035;53.594;9.952;2023-06-22T07:24:55;3.03;;;2.20;;
28920;SDS011;16035;53.594;9.952;2023-06-22T07:26:56;3.75;;;1.90;;
28920;SDS011;16035;53.594;9.952;2023-06-22T07:28:57;4.05;;;2.10;;
28920;SDS011;16035;53.594;9.952;2023-06-22T07:30:57;3.43;;;1.70;;
28920;SDS011;16035;53.594;9.952;2023-06-22T07:32:58;1.63;;;1.50;;
28920;SDS011;16035;53.594;9.952;2023-06-22T07:35:03;2.70;;;1.50;;
28920;SDS011;16035;53.594;9.952;2023-06-22T07:37:04;3.05;;;1.83;;
28920;SDS011;16035;53.594;9.952;2023-06-22T07:39:05;2.53;;;1.87;;
28920;SDS011;16035;53.594;9.952;2023-06-22T07:41:05;2.40;;;1.73;;
28920;SDS011;16035;53.594;9.952;2023-06-22T07:43:06;4.77;;;2.07;;
28920;SDS011;16035;53.594;9.952;2023-06-22T07:45:06;4.13;;;1.90;;
28920;SDS011;16035;53.594;9.952;2023-06-22T07:47:10;3.45;;;1.70;;
28920;SDS011;16035;53.594;9.952;2023-06-22T07:49:11;2.23;;;1.50;;
28920;SDS011;16035;53.594;9.952;2023-06-22T07:51:11;3.53;;;1.88;;
28920;SDS011;16035;53.594;9.952;2023-06-22T07:53:15;2.10;;;1.52;;
28920;SDS011;16035;53.594;9.952;2023-06-22T07:55:15;3.97;;;2.00;;
28920;SDS011;16035;53.594;9.952;2023-06-22T07:57:15;3.17;;;1.90;;
28920;SDS011;16035;53.594;9.952;2023-06-22T07:59:16;2.17;;;1.67;;
28920;SDS011;16035;53.594;9.952;2023-06-22T08:01:16;3.20;;;2.10;;
28920;SDS011;16035;53.594;9.952;2023-06-22T08:03:17;4.78;;;2.53;;
28920;SDS011;16035;53.594;9.952;2023-06-22T08:05:17;3.50;;;2.27;;
28920;SDS011;16035;53.594;9.952;2023-06-22T08:07:17;3.20;;;2.17;;
28920;SDS011;16035;53.594;9.952;2023-06-22T08:09:19;1.85;;;1.70;;
28920;SDS011;16035;53.594;9.952;2023-06-22T08:11:20;2.85;;;1.88;;
28920;SDS011;16035;53.594;9.952;2023-06-22T08:13:22;2.38;;;1.63;;
28920;SDS011;16035;53.594;9.952;2023-06-22T08:15:22;2.47;;;1.80;;
28920;SDS011;16035;53.594;9.952;2023-06-22T08:17:23;3.53;;;1.97;;
28920;SDS011;16035;53.594;9.952;2023-06-22T08:19:24;1.90;;;1.70;;
28920;SDS011;16035;53.594;9.952;2023-06-22T08:21:25;2.47;;;1.63;;
28920;SDS011;16035;53.594;9.952;2023-06-22T08:23:25;3.07;;;1.83;;
28920;SDS011;16035;53.594;9.952;2023-06-22T08:25:25;3.47;;;1.97;;
28920;SDS011;16035;53.594;9.952;2023-06-22T08:27:26;3.63;;;2.00;;
28920;SDS011;16035;53.594;9.952;2023-06-22T08:29:28;2.70;;;1.98;;
28920;SDS011;16035;53.594;9.952;2023-06-22T08:31:28;6.63;;;1.70;;
28920;SDS011;16035;53.594;9.952;2023-06-22T08:33:29;2.92;;;1.92;;
28920;SDS011;16035;53.594;9.952;2023-06-22T08:35:30;2.78;;;2.17;;
28920;SDS011;16035;53.594;9.952;2023-06-22T08:37:30;2.17;;;1.83;;
28920;SDS011;16035;53.594;9.952;2023-06-22T08:39:31;2.33;;;2.13;;
28920;SDS011;16035;53.594;9.952;2023-06-22T08:41:31;2.43;;;1.80;;
28920;SDS011;16035;53.594;9.952;2023-06-22T08:43:31;3.17;;;1.60;;
28920;SDS011;16035;53.594;9.952;2023-06-22T08:45:32;3.73;;;1.73;;
28920;SDS011;16035;53.594;9.952;2023-06-22T08:47:32;1.93;;;1.60;;
28920;SDS011;16035;53.594;9.952;2023-06-22T08:49:33;2.58;;;1.73;;
28920;SDS011;16035;53.594;9.952;2023-06-22T08:51:33;1.97;;;1.53;;
28920;SDS011;16035;53.594;9.952;2023-06-22T08:53:34;4.50;;;1.73;;
28920;SDS011;16035;53.594;9.952;2023-06-22T08:55:35;4.18;;;1.90;;
28920;SDS011;16035;53.594;9.952;2023-06-22T08:57:35;2.20;;;1.60;;
28920;SDS011;16035;53.594;9.952;2023-06-22T08:59:38;2.13;;;1.60;;
28920;SDS011;16035;53.594;9.952;2023-06-22T09:01:39;2.20;;;1.92;;
28920;SDS011;16035;53.594;9.952;2023-06-22T09:03:39;2.50;;;1.73;;
28920;SDS011;16035;53.594;9.952;2023-06-22T09:05:40;2.13;;;1.70;;
28920;SDS011;16035;53.594;9.952;2023-06-22T09:07:40;3.00;;;1.83;;
28920;SDS011;16035;53.594;9.952;2023-06-22T09:09:40;2.25;;;1.70;;
28920;SDS011;16035;53.594;9.952;2023-06-22T09:11:41;2.27;;;1.80;;
28920;SDS011;16035;53.594;9.952;2023-06-22T09:13:41;3.47;;;1.90;;
28920;SDS011;16035;53.594;9.952;2023-06-22T09:15:42;3.03;;;1.95;;
28920;SDS011;16035;53.594;9.952;2023-06-22T09:17:42;3.45;;;1.90;;
28920;SDS011;16035;53.594;9.952;2023-06-22T09:19:43;2.97;;;1.95;;
28920;SDS011;16035;53.594;9.952;2023-06-22T09:23:44;3.17;;;2.07;;
28920;SDS011;16035;53.594;9.952;2023-06-22T09:25:46;2.15;;;1.95;;
28920;SDS011;16035;53.594;9.952;2023-06-22T09:29:48;2.83;;;2.23;;
28920;SDS011;16035;53.594;9.952;2023-06-22T09:31:49;2.03;;;1.83;;
28920;SDS011;16035;53.594;9.952;2023-06-22T09:33:49;2.57;;;1.90;;
28920;SDS011;16035;53.594;9.952;2023-06-22T09:35:50;9.07;;;2.10;;
28920;SDS011;16035;53.594;9.952;2023-06-22T09:39:51;2.20;;;1.80;;
28920;SDS011;16035;53.594;9.952;2023-06-22T09:43:51;4.30;;;2.73;;
28920;SDS011;16035;53.594;9.952;2023-06-22T09:47:52;2.43;;;1.70;;
28920;SDS011;16035;53.594;9.952;2023-06-22T09:51:54;3.60;;;1.95;;
28920;SDS011;16035;53.594;9.952;2023-06-22T09:55:55;2.60;;;1.92;;
28920;SDS011;16035;53.594;9.952;2023-06-22T09:59:55;2.83;;;2.00;;
28920;SDS011;16035;53.594;9.952;2023-06-22T10:01:56;5.07;;;2.63;;
28920;SDS011;16035;53.594;9.952;2023-06-22T10:05:56;7.15;;;2.20;;
28920;SDS011;16035;53.594;9.952;2023-06-22T10:07:57;2.25;;;2.05;;
28920;SDS011;16035;53.594;9.952;2023-06-22T10:11:58;3.78;;;2.20;;
28920;SDS011;16035;53.594;9.952;2023-06-22T10:16:00;3.72;;;1.98;;
28920;SDS011;16035;53.594;9.952;2023-06-22T10:18:01;2.60;;;1.90;;
28920;SDS011;16035;53.594;9.952;2023-06-22T10:22:06;2.67;;;2.38;;
28920;SDS011;16035;53.594;9.952;2023-06-22T10:26:07;3.93;;;2.00;;
28920;SDS011;16035;53.594;9.952;2023-06-22T10:30:11;3.70;;;1.87;;
28920;SDS011;16035;53.594;9.952;2023-06-22T10:32:15;3.65;;;2.10;;
28920;SDS011;16035;53.594;9.952;2023-06-22T10:34:15;3.83;;;1.85;;
28920;SDS011;16035;53.594;9.952;2023-06-22T10:36:16;5.07;;;2.50;;
28920;SDS011;16035;53.594;9.952;2023-06-22T10:38:16;2.95;;;2.25;;
28920;SDS011;16035;53.594;9.952;2023-06-22T10:40:17;2.95;;;1.88;;
28920;SDS011;16035;53.594;9.952;2023-06-22T10:42:18;3.20;;;2.75;;
28920;SDS011;16035;53.594;9.952;2023-06-22T10:44:19;3.97;;;2.20;;
28920;SDS011;16035;53.594;9.952;2023-06-22T10:46:21;3.17;;;2.20;;
28920;SDS011;16035;53.594;9.952;2023-06-22T10:50:21;2.00;;;1.80;;
28920;SDS011;16035;53.594;9.952;2023-06-22T10:52:24;5.10;;;1.88;;
28920;SDS011;16035;53.594;9.952;2023-06-22T10:56:24;3.23;;;2.93;;
28920;SDS011;16035;53.594;9.952;2023-06-22T11:00:25;3.42;;;2.35;;
28920;SDS011;16035;53.594;9.952;2023-06-22T11:04:28;2.85;;;2.25;;
28920;SDS011;16035;53.594;9.952;2023-06-22T11:08:28;2.92;;;2.13;;
28920;SDS011;16035;53.594;9.952;2023-06-22T11:12:29;2.77;;;2.53;;
28920;SDS011;16035;53.594;9.952;2023-06-22T11:16:29;4.10;;;1.93;;
28920;SDS011;16035;53.594;9.952;2023-06-22T11:20:31;3.05;;;1.80;;
28920;SDS011;16035;53.594;9.952;2023-06-22T11:22:33;3.90;;;2.28;;
28920;SDS011;16035;53.594;9.952;2023-06-22T11:26:33;2.37;;;2.07;;
28920;SDS011;16035;53.594;9.952;2023-06-22T11:30:34;5.37;;;2.43;;
28920;SDS011;16035;53.594;9.952;2023-06-22T11:34:35;4.45;;;2.70;;
28920;SDS011;16035;53.594;9.952;2023-06-22T11:36:36;3.13;;;2.57;;
28920;SDS011;16035;53.594;9.952;2023-06-22T11:38:36;3.07;;;2.67;;
28920;SDS011;16035;53.594;9.952;2023-06-22T11:40:39;4.93;;;2.78;;
28920;SDS011;16035;53.594;9.952;2023-06-22T11:44:39;2.17;;;1.98;;
28920;SDS011;16035;53.594;9.952;2023-06-22T11:46:40;4.60;;;2.80;;
28920;SDS011;16035;53.594;9.952;2023-06-22T11:48:40;3.60;;;2.33;;
28920;SDS011;16035;53.594;9.952;2023-06-22T11:50:40;3.00;;;2.70;;
28920;SDS011;16035;53.594;9.952;2023-06-22T11:54:41;5.93;;;3.33;;
28920;SDS011;16035;53.594;9.952;2023-06-22T11:56:41;3.03;;;2.70;;
28920;SDS011;16035;53.594;9.952;2023-06-22T12:00:42;2.73;;;2.40;;
28920;SDS011;16035;53.594;9.952;2023-06-22T12:02:42;4.25;;;2.45;;
28920;SDS011;16035;53.594;9.952;2023-06-22T12:04:42;2.67;;;2.45;;
28920;SDS011;16035;53.594;9.952;2023-06-22T12:06:43;3.07;;;2.50;;
28920;SDS011;16035;53.594;9.952;2023-06-22T12:08:43;4.23;;;2.97;;
28920;SDS011;16035;53.594;9.952;2023-06-22T12:10:43;3.30;;;2.40;;
28920;SDS011;16035;53.594;9.952;2023-06-22T12:14:44;3.33;;;2.70;;
28920;SDS011;16035;53.594;9.952;2023-06-22T12:18:45;4.13;;;2.93;;
28920;SDS011;16035;53.594;9.952;2023-06-22T12:20:45;4.15;;;2.83;;
28920;SDS011;16035;53.594;9.952;2023-06-22T12:22:45;3.03;;;2.50;;
28920;SDS011;16035;53.594;9.952;2023-06-22T12:24:47;4.38;;;3.53;;
28920;SDS011;16035;53.594;9.952;2023-06-22T12:26:47;5.47;;;3.07;;
28920;SDS011;16035;53.594;9.952;2023-06-22T12:28:48;3.95;;;2.70;;
28920;SDS011;16035;53.594;9.952;2023-06-22T12:30:49;4.28;;;3.00;;
28920;SDS011;16035;53.594;9.952;2023-06-22T12:34:51;3.38;;;2.67;;
28920;SDS011;16035;53.594;9.952;2023-06-22T12:36:51;2.83;;;2.53;;
28920;SDS011;16035;53.594;9.952;2023-06-22T12:38:54;3.03;;;2.75;;
28920;SDS011;16035;53.594;9.952;2023-06-22T12:40:54;6.38;;;2.95;;
28920;SDS011;16035;53.594;9.952;2023-06-22T12:42:55;2.87;;;2.57;;
28920;SDS011;16035;53.594;9.952;2023-06-22T12:44:55;3.83;;;3.30;;
28920;SDS011;16035;53.594;9.952;2023-06-22T12:46:55;3.63;;;3.23;;
28920;SDS011;16035;53.594;9.952;2023-06-22T12:48:56;3.97;;;2.90;;
28920;SDS011;16035;53.594;9.952;2023-06-22T12:50:56;3.90;;;2.85;;
28920;SDS011;16035;53.594;9.952;2023-06-22T12:52:56;4.22;;;3.17;;
28920;SDS011;16035;53.594;9.952;2023-06-22T12:54:57;5.07;;;3.20;;
28920;SDS011;16035;53.594;9.952;2023-06-22T12:56:57;3.67;;;2.90;;
28920;SDS011;16035;53.594;9.952;2023-06-22T12:58:58;6.67;;;3.57;;
28920;SDS011;16035;53.594;9.952;2023-06-22T13:00:59;4.75;;;3.30;;
28920;SDS011;16035;53.594;9.952;2023-06-22T13:03:00;4.53;;;3.00;;
28920;SDS011;16035;53.594;9.952;2023-06-22T13:05:00;3.40;;;2.93;;
28920;SDS011;16035;53.594;9.952;2023-06-22T13:09:01;4.30;;;2.93;;
28920;SDS011;16035;53.594;9.952;2023-06-22T13:11:01;3.07;;;2.77;;
28920;SDS011;16035;53.594;9.952;2023-06-22T13:13:02;3.70;;;3.20;;
28920;SDS011;16035;53.594;9.952;2023-06-22T13:15:02;3.67;;;2.77;;
28920;SDS011;16035;53.594;9.952;2023-06-22T13:17:03;4.88;;;2.67;;
28920;SDS011;16035;53.594;9.952;2023-06-22T13:19:03;4.80;;;3.20;;